Time;durP1;ratioP1;P1;durP2;ratioP2;P2;SDS_P1;SDS_P2;PMS_P1;PMS_P2;Temp;Humidity;BMP_temperature;BMP_pressure;BME280_temperature;BME280_humidity;BME280_pressure;Samples;Min_cycle;Max_cycle;Signal;HPM_P1;HPM_P2
2021/12/16 00:01:47;;;;;;;10.55;5.15;;;8.10;99.90;;;;;;5060562;28;20041;-69
2021/12/16 00:05:03;;;;;;;14.25;5.80;;;8.10;99.90;;;;;;5065815;28;20138;-69
2021/12/16 00:31:45;;;;;;;14.23;6.13;;;8.10;99.90;;;;;;5060375;28;20127;-69
2021/12/16 00:34:12;;;;;;;11.27;6.13;;;8.10;99.90;;;;;;5045939;28;20048;-69
2021/12/16 00:36:40;;;;;;;12.88;5.18;;;8.20;99.90;;;;;;5062298;28;20189;-69
2021/12/16 00:39:15;;;;;;;10.60;5.32;;;8.20;99.90;;;;;;5044683;28;20043;-69
2021/12/16 00:41:43;;;;;;;14.07;5.40;;;8.10;99.90;;;;;;5037634;28;20223;-69
2021/12/16 00:44:22;;;;;;;12.30;5.20;;;8.10;99.90;;;;;;5050227;28;20028;-69
2021/12/16 00:47:54;;;;;;;13.77;5.45;;;8.20;99.90;;;;;;5047552;28;20044;-69
2021/12/16 00:49:47;;;;;;;16.05;4.65;;;8.20;99.90;;;;;;5040969;28;20045;-69
2021/12/16 00:55:10;;;;;;;;;;;8.10;99.90;;;;;;5067912;28;20076;-69
2021/12/16 00:57:36;;;;;;;14.70;4.93;;;8.10;99.90;;;;;;5048719;28;20405;-69
2021/12/16 01:00:04;;;;;;;;;;;8.10;99.90;;;;;;5047371;28;20040;-68
2021/12/16 01:02:48;;;;;;;;;;;8.10;99.90;;;;;;5066065;28;19916;-69
2021/12/16 01:35:32;;;;;;;15.48;6.38;;;7.80;99.90;;;;;;5061311;28;20477;-69
2021/12/16 01:49:10;;;;;;;11.30;4.72;;;7.80;99.90;;;;;;5022549;28;20041;-69
2021/12/16 01:57:12;;;;;;;19.92;5.55;;;7.70;99.90;;;;;;5057479;28;20052;-69
2021/12/16 01:59:44;;;;;;;16.13;5.18;;;7.70;99.90;;;;;;5061692;28;20040;-69
2021/12/16 02:02:28;;;;;;;16.77;5.35;;;7.70;99.90;;;;;;5062292;28;20036;-69
2021/12/16 02:05:24;;;;;;;16.58;5.18;;;7.60;99.90;;;;;;5062455;28;20063;-69
2021/12/16 02:08:18;;;;;;;14.57;6.28;;;7.70;99.90;;;;;;5063317;28;20040;-69
2021/12/16 02:10:49;;;;;;;13.95;5.68;;;7.60;99.90;;;;;;5065110;28;20048;-68
2021/12/16 02:30:14;;;;;;;14.02;6.07;;;7.40;99.90;;;;;;5058473;28;20151;-68
2021/12/16 02:32:56;;;;;;;15.18;5.40;;;7.40;99.90;;;;;;5060666;28;20597;-68
2021/12/16 02:37:54;;;;;;;14.85;5.97;;;7.30;99.90;;;;;;5044494;28;20059;-68
2021/12/16 02:40:20;;;;;;;15.70;5.77;;;7.30;99.90;;;;;;5043574;28;20044;-69
2021/12/16 02:43:08;;;;;;;12.05;5.45;;;7.30;99.90;;;;;;5063784;28;20047;-69
2021/12/16 02:48:34;;;;;;;10.93;5.47;;;7.20;99.90;;;;;;5012043;28;20361;-70
2021/12/16 02:51:22;;;;;;;16.83;5.70;;;7.10;99.90;;;;;;5062785;28;20036;-70
2021/12/16 02:53:50;;;;;;;;;;;7.10;99.90;;;;;;5061497;23;20148;-88
2021/12/16 02:56:17;;;;;;;9.88;4.53;;;7.10;99.90;;;;;;5048536;28;20388;-88
2021/12/16 02:58:50;;;;;;;13.30;5.88;;;7.00;99.90;;;;;;5047155;28;20033;-88
2021/12/16 03:01:55;;;;;;;11.48;5.53;;;7.00;99.90;;;;;;5037290;28;20056;-89
2021/12/16 03:04:26;;;;;;;13.48;5.03;;;6.90;99.90;;;;;;4993732;28;20132;-89
2021/12/16 03:06:58;;;;;;;13.90;5.63;;;6.90;99.90;;;;;;5025608;28;20045;-88
2021/12/16 03:12:44;;;;;;;14.90;5.80;;;6.80;99.90;;;;;;4995693;28;20519;-89
2021/12/16 03:20:41;;;;;;;14.90;5.32;;;6.90;99.90;;;;;;5017124;28;20095;-89
2021/12/16 03:23:53;;;;;;;12.88;5.78;;;6.90;99.90;;;;;;5019695;28;20533;-89
2021/12/16 03:29:01;;;;;;;18.27;6.75;;;6.90;99.90;;;;;;5022886;28;20019;-88
2021/12/16 03:37:21;;;;;;;13.48;5.57;;;6.80;99.90;;;;;;5037677;28;20388;-89
2021/12/16 03:40:08;;;;;;;15.50;6.13;;;6.90;99.90;;;;;;5001187;28;20500;-89
2021/12/16 03:42:44;;;;;;;13.27;6.30;;;6.80;99.90;;;;;;5001557;28;20407;-87
2021/12/16 03:48:26;;;;;;;14.38;5.65;;;6.80;99.90;;;;;;4992362;28;20104;-88
2021/12/16 03:50:52;;;;;;;16.10;6.90;;;6.90;99.90;;;;;;5002735;28;20075;-89
2021/12/16 03:53:19;;;;;;;21.50;7.00;;;6.90;99.90;;;;;;5010158;28;20093;-89
2021/12/16 03:55:48;;;;;;;15.68;6.03;;;6.80;99.90;;;;;;5009827;28;20057;-88
2021/12/16 03:58:20;;;;;;;18.83;6.72;;;6.80;99.90;;;;;;4999872;28;20053;-89
2021/12/16 04:00:59;;;;;;;16.33;7.03;;;6.80;99.90;;;;;;5010889;28;20153;-88
2021/12/16 04:03:26;;;;;;;17.75;6.47;;;6.80;99.90;;;;;;5005497;28;20073;-88
2021/12/16 04:06:06;;;;;;;17.42;6.63;;;6.70;99.90;;;;;;5003802;28;20449;-89
2021/12/16 04:08:32;;;;;;;18.88;6.72;;;6.70;99.90;;;;;;5018677;28;20034;-88
2021/12/16 04:11:06;;;;;;;16.60;7.30;;;6.70;99.90;;;;;;5010489;28;20033;-88
2021/12/16 04:13:46;;;;;;;19.25;7.53;;;6.70;99.90;;;;;;5016909;28;20292;-89
2021/12/16 04:16:12;;;;;;;22.38;6.68;;;6.70;99.90;;;;;;5010855;28;20037;-89
2021/12/16 04:18:40;;;;;;;10.07;5.97;;;6.70;99.90;;;;;;5022512;28;20080;-88
2021/12/16 04:21:16;;;;;;;;;;;;;;;;;;;;;
2021/12/16 04:23:49;;;;;;;12.60;5.97;;;6.70;99.90;;;;;;5046355;28;20084;-88
2021/12/16 04:26:18;;;;;;;12.15;5.40;;;6.70;99.90;;;;;;5028994;28;20055;-88
2021/12/16 04:28:46;;;;;;;13.25;5.70;;;6.70;99.90;;;;;;5014371;28;20052;-88
2021/12/16 04:31:12;;;;;;;16.88;6.10;;;6.70;99.90;;;;;;5011304;28;20095;-89
2021/12/16 04:33:41;;;;;;;12.67;5.27;;;6.70;99.90;;;;;;5007974;28;20442;-88
2021/12/16 04:36:09;;;;;;;12.80;6.63;;;6.60;99.90;;;;;;5020371;28;20068;-89
2021/12/16 04:38:40;;;;;;;16.27;6.45;;;6.60;99.90;;;;;;5021793;28;20380;-88
2021/12/16 04:41:12;;;;;;;11.25;5.75;;;6.60;99.90;;;;;;5008271;28;20127;-88
2021/12/16 04:43:52;;;;;;;12.00;5.22;;;6.60;99.90;;;;;;5026167;28;20037;-89
2021/12/16 04:46:22;;;;;;;10.75;5.38;;;6.60;99.90;;;;;;5009467;28;20041;-89
2021/12/16 04:48:54;;;;;;;14.48;5.70;;;6.70;99.90;;;;;;5026924;28;20049;-88
2021/12/16 04:51:25;;;;;;;16.67;6.05;;;6.70;99.90;;;;;;5007449;28;20073;-89
2021/12/16 04:53:56;;;;;;;10.65;5.80;;;6.70;99.90;;;;;;5007866;28;20076;-89
2021/12/16 04:56:23;;;;;;;11.82;5.32;;;6.70;99.90;;;;;;5005698;28;20101;-89
2021/12/16 04:58:53;;;;;;;18.65;6.43;;;6.80;99.90;;;;;;5028815;28;20495;-88
2021/12/16 05:01:20;;;;;;;14.35;5.35;;;6.70;99.90;;;;;;5007029;28;20500;-89
2021/12/16 05:03:48;;;;;;;19.20;5.68;;;6.70;99.90;;;;;;5003486;28;20033;-89
2021/12/16 05:06:17;;;;;;;13.52;5.95;;;6.70;99.90;;;;;;5008711;28;20050;-88
2021/12/16 05:08:45;;;;;;;16.58;6.10;;;6.70;99.90;;;;;;5019026;28;20041;-89
2021/12/16 05:11:19;;;;;;;14.27;5.93;;;6.70;99.90;;;;;;5007313;28;20052;-88
2021/12/16 05:13:49;;;;;;;15.88;5.88;;;6.70;99.90;;;;;;5019295;28;20061;-88
2021/12/16 05:16:24;;;;;;;15.95;6.13;;;6.70;99.90;;;;;;5010997;28;20041;-88
2021/12/16 05:18:54;;;;;;;14.05;6.07;;;6.70;99.90;;;;;;5002755;28;20081;-88
2021/12/16 05:24:30;;;;;;;14.32;5.28;;;6.80;99.90;;;;;;4989155;28;20046;-88
2021/12/16 05:27:02;;;;;;;11.97;5.40;;;6.80;99.90;;;;;;4967244;28;20050;-88
2021/12/16 05:29:31;;;;;;;16.50;5.53;;;6.80;99.90;;;;;;4993239;28;20053;-89
2021/12/16 05:31:57;;;;;;;21.27;6.63;;;6.70;99.90;;;;;;5027495;28;20052;-89
2021/12/16 05:34:36;;;;;;;14.80;6.35;;;6.70;99.90;;;;;;5009888;28;20056;-88
2021/12/16 05:37:07;;;;;;;18.23;6.03;;;6.80;99.90;;;;;;5028033;28;20094;-89
2021/12/16 05:39:39;;;;;;;14.93;5.43;;;6.80;99.90;;;;;;5031424;28;20479;-89
2021/12/16 05:42:07;;;;;;;16.67;6.00;;;6.80;99.90;;;;;;5021467;28;20044;-88
2021/12/16 05:44:38;;;;;;;15.13;5.95;;;6.80;99.90;;;;;;5012746;28;20080;-88
2021/12/16 05:47:06;;;;;;;20.23;6.20;;;6.80;99.90;;;;;;5043150;28;20044;-88
2021/12/16 05:49:32;;;;;;;15.32;6.07;;;6.70;99.90;;;;;;5011405;28;20262;-87
2021/12/16 05:51:58;;;;;;;15.20;6.57;;;6.80;99.90;;;;;;5010542;28;20041;-88
2021/12/16 05:54:24;;;;;;;22.20;7.30;;;6.90;99.90;;;;;;5008179;28;20347;-88
2021/12/16 05:56:57;;;;;;;22.10;6.68;;;6.90;99.90;;;;;;5018251;28;20050;-89
2021/12/16 05:59:23;;;;;;;18.17;6.43;;;6.90;99.90;;;;;;4998509;28;20101;-89
2021/12/16 06:01:50;;;;;;;13.57;6.77;;;6.90;99.90;;;;;;5004523;28;20087;-88
2021/12/16 06:04:20;;;;;;;17.17;6.97;;;6.90;99.90;;;;;;5004463;28;20041;-88
2021/12/16 06:06:49;;;;;;;16.10;6.85;;;6.90;99.90;;;;;;4999173;28;20563;-89
2021/12/16 06:09:14;;;;;;;13.90;6.47;;;7.00;99.90;;;;;;5008183;28;20122;-88
2021/12/16 06:11:44;;;;;;;13.10;6.47;;;6.90;99.90;;;;;;5020194;28;20480;-88
2021/12/16 06:28:07;;;;;;;15.63;5.95;;;6.90;99.90;;;;;;5024475;28;20562;-88
2021/12/16 06:30:41;;;;;;;15.38;6.72;;;6.80;99.90;;;;;;5005262;28;20051;-88
2021/12/16 06:33:20;;;;;;;14.60;6.43;;;6.90;99.90;;;;;;4997393;28;20119;-87
2021/12/16 06:35:52;;;;;;;14.90;6.07;;;6.80;99.90;;;;;;5003344;28;20037;-87
2021/12/16 06:38:30;;;;;;;14.98;6.57;;;6.80;99.90;;;;;;5004174;28;20116;-87
2021/12/16 06:44:07;;;;;;;20.65;6.97;;;6.70;99.90;;;;;;5024956;28;20067;-86
2021/12/16 06:46:53;;;;;;;15.82;6.72;;;6.60;99.90;;;;;;5020831;28;20048;-89
2021/12/16 06:49:22;;;;;;;14.68;6.68;;;6.70;99.90;;;;;;5004622;28;20106;-87
2021/12/16 06:52:01;;;;;;;13.98;6.30;;;6.60;99.90;;;;;;5013656;28;20056;-89
2021/12/16 06:54:38;;;;;;;15.70;6.97;;;6.60;99.90;;;;;;4972980;28;1092679;-87
2021/12/16 07:00:22;;;;;;;17.73;7.18;;;6.60;99.90;;;;;;5042347;28;19963;-86
2021/12/16 07:02:58;;;;;;;16.50;6.63;;;6.60;99.90;;;;;;5026635;28;20055;-86
2021/12/16 07:05:40;;;;;;;17.13;7.53;;;6.50;99.90;;;;;;5009236;28;20064;-87
2021/12/16 07:08:40;;;;;;;;;;;;;;;;;;;;;
2021/12/16 07:11:09;;;;;;;22.02;7.90;;;6.50;99.90;;;;;;5026867;28;20124;-88
2021/12/16 07:13:55;;;;;;;18.10;7.23;;;6.50;99.90;;;;;;5026650;28;20080;-87
2021/12/16 07:16:22;;;;;;;15.82;7.88;;;6.50;99.90;;;;;;5009884;28;20064;-86
2021/12/16 07:18:58;;;;;;;16.13;8.40;;;6.50;99.90;;;;;;5012292;28;20091;-87
2021/12/16 07:21:25;;;;;;;17.00;8.05;;;6.40;99.90;;;;;;5028107;28;20058;-87
2021/12/16 07:23:56;;;;;;;19.75;8.75;;;6.40;99.90;;;;;;5024373;28;20053;-88
2021/12/16 07:26:22;;;;;;;19.48;7.72;;;6.40;99.90;;;;;;5023358;28;20053;-88
2021/12/16 07:28:48;;;;;;;19.43;8.03;;;6.40;99.90;;;;;;5023503;28;20071;-86
2021/12/16 07:31:19;;;;;;;21.70;8.60;;;6.30;99.90;;;;;;5018712;28;20249;-88
2021/12/16 07:34:11;;;;;;;26.42;8.65;;;6.30;99.90;;;;;;5017722;28;20533;-86
2021/12/16 07:36:40;;;;;;;17.65;9.25;;;6.40;99.90;;;;;;5004412;28;20053;-86
2021/12/16 07:39:37;;;;;;;23.05;8.95;;;6.30;99.90;;;;;;5021315;28;20495;-85
2021/12/16 07:42:23;;;;;;;22.30;9.68;;;6.30;99.90;;;;;;5005592;28;20510;-85
2021/12/16 07:45:07;;;;;;;32.45;9.95;;;6.40;99.90;;;;;;5031769;28;20188;-85
2021/12/16 07:47:33;;;;;;;25.98;9.32;;;6.40;99.90;;;;;;5040675;28;20034;-85
2021/12/16 07:49:59;;;;;;;47.03;10.67;;;6.30;99.90;;;;;;5016552;28;20033;-85
2021/12/16 07:52:27;;;;;;;24.40;8.57;;;6.30;99.90;;;;;;5046720;28;20028;-86
2021/12/16 07:55:01;;;;;;;41.38;9.73;;;6.40;99.90;;;;;;5012345;28;20262;-85
2021/12/16 07:57:27;;;;;;;31.60;9.85;;;6.30;99.90;;;;;;5029023;28;20041;-86
2021/12/16 07:59:55;;;;;;;24.95;8.55;;;6.30;99.90;;;;;;5027556;28;20045;-84
2021/12/16 08:02:41;;;;;;;48.13;10.10;;;6.30;99.90;;;;;;5028731;28;20049;-86
2021/12/16 08:05:08;;;;;;;23.58;8.73;;;6.30;99.90;;;;;;5034618;23;20338;-66
2021/12/16 08:07:34;;;;;;;38.05;9.63;;;6.40;99.90;;;;;;5030676;28;20571;-67
2021/12/16 08:10:00;;;;;;;40.50;11.23;;;6.40;99.90;;;;;;5027428;28;20077;-66
2021/12/16 08:12:26;;;;;;;26.02;9.32;;;6.40;99.90;;;;;;5028922;28;20112;-66
2021/12/16 08:14:52;;;;;;;39.33;9.20;;;6.40;99.90;;;;;;5021963;28;20041;-66
2021/12/16 08:17:18;;;;;;;21.50;7.60;;;6.40;99.90;;;;;;5030261;28;20037;-66
2021/12/16 08:19:45;;;;;;;25.23;9.35;;;6.40;99.90;;;;;;5026495;28;20037;-66
2021/12/16 08:22:12;;;;;;;23.67;9.63;;;6.50;99.90;;;;;;5047779;28;20047;-66
2021/12/16 08:24:38;;;;;;;21.38;8.77;;;6.50;99.90;;;;;;5026956;28;20090;-66
2021/12/16 08:27:07;;;;;;;24.30;8.13;;;6.50;99.90;;;;;;5021135;28;20047;-67
2021/12/16 08:29:33;;;;;;;25.85;8.85;;;6.50;99.90;;;;;;5048307;28;20191;-66
2021/12/16 08:31:58;;;;;;;26.70;8.80;;;6.60;99.90;;;;;;5028815;28;20290;-67
2021/12/16 08:34:27;;;;;;;25.00;9.20;;;6.60;99.90;;;;;;5029253;28;20052;-65
2021/12/16 08:36:52;;;;;;;25.63;9.32;;;6.60;99.90;;;;;;5047543;28;20044;-66
2021/12/16 08:39:19;;;;;;;25.60;8.87;;;6.60;99.90;;;;;;5027623;28;20033;-66
2021/12/16 08:41:48;;;;;;;28.67;8.70;;;6.70;99.90;;;;;;5047075;28;20272;-66
2021/12/16 08:44:16;;;;;;;23.92;8.93;;;6.70;99.90;;;;;;5016327;28;20049;-69
2021/12/16 08:46:47;;;;;;;21.90;8.55;;;6.70;99.90;;;;;;5043723;28;20041;-68
2021/12/16 08:49:14;;;;;;;21.92;9.73;;;6.70;99.90;;;;;;5023052;28;20045;-77
2021/12/16 08:51:48;;;;;;;21.38;7.95;;;6.80;99.90;;;;;;5033202;28;20041;-74
2021/12/16 08:54:15;;;;;;;20.65;8.48;;;6.80;99.90;;;;;;5035973;23;20109;-66
2021/12/16 08:56:41;;;;;;;20.77;8.18;;;6.80;99.90;;;;;;5006971;28;20049;-71
2021/12/16 08:59:08;;;;;;;29.02;9.85;;;6.80;99.90;;;;;;5041082;28;20035;-72
2021/12/16 09:01:36;;;;;;;;;;;6.80;99.90;;;;;;5032740;28;20064;-68
2021/12/16 09:04:02;;;;;;;;;;;6.90;99.90;;;;;;5027141;28;19942;-70
2021/12/16 09:06:28;;;;;;;22.38;8.73;;;6.90;99.90;;;;;;5015008;28;20357;-70
2021/12/16 09:08:55;;;;;;;20.50;9.30;;;6.80;99.90;;;;;;5031563;28;20152;-70
2021/12/16 09:11:24;;;;;;;29.40;10.35;;;6.90;99.90;;;;;;5015440;28;20072;-71
2021/12/16 09:13:54;;;;;;;23.20;8.40;;;6.90;99.90;;;;;;5030091;28;20052;-70
2021/12/16 09:16:24;;;;;;;26.63;8.32;;;6.90;99.90;;;;;;5019689;28;20076;-71
2021/12/16 09:18:50;;;;;;;25.85;10.32;;;6.90;99.90;;;;;;4993444;28;20494;-71
2021/12/16 09:21:21;;;;;;;27.30;8.55;;;7.00;99.90;;;;;;5021715;28;20281;-66
2021/12/16 09:23:48;;;;;;;29.33;9.63;;;7.00;99.90;;;;;;5023625;28;20373;-74
2021/12/16 09:26:14;;;;;;;;;;;7.00;99.90;;;;;;5000397;28;20049;-74
2021/12/16 09:28:40;;;;;;;22.42;9.23;;;7.00;99.90;;;;;;5006911;28;19951;-69
2021/12/16 09:31:11;;;;;;;24.08;9.95;;;7.00;99.90;;;;;;5018155;28;20057;-66
2021/12/16 09:33:42;;;;;;;29.77;8.52;;;7.00;99.90;;;;;;5024243;28;20076;-66
2021/12/16 09:36:09;;;;;;;28.98;9.07;;;7.00;99.90;;;;;;5013394;28;20375;-66
2021/12/16 09:38:35;;;;;;;34.10;9.32;;;7.10;99.90;;;;;;5001269;28;20052;-66
2021/12/16 09:41:00;;;;;;;30.90;8.90;;;7.10;99.90;;;;;;5012848;28;20496;-66
2021/12/16 09:43:33;;;;;;;32.30;8.87;;;7.10;99.90;;;;;;5011077;28;20038;-67
2021/12/16 09:46:07;;;;;;;25.77;9.07;;;7.10;99.90;;;;;;5031248;28;20427;-67
2021/12/16 09:48:35;;;;;;;25.65;8.50;;;7.10;99.90;;;;;;5025650;28;20169;-66
2021/12/16 09:51:04;;;;;;;33.13;10.50;;;7.10;99.90;;;;;;5033040;28;20490;-66
2021/12/16 09:53:31;;;;;;;32.65;8.95;;;7.10;99.90;;;;;;5026316;28;20551;-66
2021/12/16 09:56:00;;;;;;;30.15;9.18;;;7.00;99.90;;;;;;5020207;28;20041;-66
2021/12/16 09:58:32;;;;;;;20.92;8.38;;;7.00;99.90;;;;;;5026796;28;20056;-66
2021/12/16 10:00:58;;;;;;;19.27;8.63;;;7.10;99.90;;;;;;5031608;28;20429;-66
2021/12/16 10:03:26;;;;;;;43.90;10.95;;;7.10;99.90;;;;;;5017013;28;20491;-66
2021/12/16 10:05:51;;;;;;;22.40;8.32;;;7.10;99.90;;;;;;5023178;28;20045;-68
2021/12/16 10:08:17;;;;;;;24.20;8.37;;;7.10;99.90;;;;;;5022685;28;20040;-68
2021/12/16 10:10:43;;;;;;;24.40;9.77;;;7.20;99.90;;;;;;5029825;28;20049;-69
2021/12/16 10:13:09;;;;;;;16.80;8.40;;;7.20;99.90;;;;;;5009469;28;20045;-68
2021/12/16 10:18:10;;;;;;;26.13;8.82;;;7.30;99.90;;;;;;5028966;28;20052;-68
2021/12/16 10:20:44;;;;;;;19.75;8.48;;;7.30;99.90;;;;;;5030761;28;20215;-68
2021/12/16 10:23:16;;;;;;;23.98;8.30;;;7.40;99.90;;;;;;5020334;28;20035;-70
2021/12/16 10:25:54;;;;;;;18.05;8.40;;;7.40;99.90;;;;;;5026036;28;20037;-74
2021/12/16 10:28:26;;;;;;;18.88;9.70;;;7.40;99.90;;;;;;5010749;28;20095;-76
2021/12/16 10:30:52;;;;;;;17.98;9.38;;;7.50;99.90;;;;;;5008308;28;20508;-67
2021/12/16 10:33:22;;;;;;;23.42;9.88;;;7.60;99.90;;;;;;5023383;28;20140;-71
2021/12/16 10:35:48;;;;;;;25.33;9.73;;;7.60;99.90;;;;;;5007423;28;20172;-69
2021/12/16 10:38:19;;;;;;;24.33;8.90;;;7.70;99.90;;;;;;5011666;28;20045;-69
2021/12/16 10:40:47;;;;;;;27.27;9.82;;;7.70;99.90;;;;;;5014609;28;20083;-77
2021/12/16 10:43:22;;;;;;;25.05;9.65;;;7.70;99.90;;;;;;5014344;28;20281;-69
2021/12/16 10:45:56;;;;;;;22.75;9.73;;;7.80;99.90;;;;;;5026383;28;20054;-69
2021/12/16 10:48:34;;;;;;;25.30;8.93;;;7.80;99.90;;;;;;5009097;28;20049;-68
2021/12/16 10:51:31;;;;;;;29.58;9.73;;;7.90;99.90;;;;;;5014623;28;20045;-74
2021/12/16 10:54:11;;;;;;;21.17;9.70;;;7.90;99.90;;;;;;4976658;28;20061;-75
2021/12/16 10:57:02;;;;;;;21.48;9.80;;;7.90;99.90;;;;;;5000644;28;20084;-68
2021/12/16 10:59:31;;;;;;;22.20;9.30;;;8.00;99.90;;;;;;5005444;28;20050;-68
2021/12/16 11:02:05;;;;;;;22.27;9.40;;;8.00;99.90;;;;;;5003962;28;20041;-68
2021/12/16 11:04:35;;;;;;;19.60;7.57;;;8.00;99.90;;;;;;5010501;28;20045;-69
2021/12/16 11:07:15;;;;;;;19.70;8.68;;;8.00;99.90;;;;;;5009600;28;20056;-68
2021/12/16 11:09:43;;;;;;;20.20;6.95;;;8.00;99.90;;;;;;5027111;28;20045;-68
2021/12/16 11:12:16;;;;;;;24.50;8.90;;;8.00;99.90;;;;;;5008885;28;20048;-68
2021/12/16 11:14:50;;;;;;;21.33;9.80;;;8.10;99.90;;;;;;5024121;28;20041;-68
2021/12/16 11:17:18;;;;;;;22.98;9.90;;;8.10;99.90;;;;;;5026531;28;20187;-68
2021/12/16 11:19:51;;;;;;;30.52;9.25;;;8.10;99.90;;;;;;5025672;28;20037;-69
2021/12/16 11:22:21;;;;;;;19.40;8.32;;;8.20;99.90;;;;;;5031137;28;20029;-69
2021/12/16 11:24:47;;;;;;;22.70;8.65;;;8.20;99.90;;;;;;5014452;28;20038;-68
2021/12/16 11:27:32;;;;;;;22.85;9.15;;;8.20;99.90;;;;;;5025613;28;20049;-68
2021/12/16 11:30:19;;;;;;;24.80;8.65;;;8.20;99.90;;;;;;4991655;28;20136;-68
2021/12/16 11:32:48;;;;;;;29.55;10.38;;;8.20;99.90;;;;;;5024234;28;20048;-69
2021/12/16 11:35:32;;;;;;;27.42;9.07;;;8.20;99.90;;;;;;5004739;28;20115;-68
2021/12/16 11:38:03;;;;;;;27.58;10.00;;;8.30;99.90;;;;;;5027486;28;20041;-68
2021/12/16 11:40:50;;;;;;;23.75;10.07;;;8.30;99.90;;;;;;5033400;28;20099;-68
2021/12/16 11:43:17;;;;;;;30.93;10.00;;;8.30;99.90;;;;;;5029926;28;20029;-69
2021/12/16 11:45:43;;;;;;;27.40;9.55;;;8.30;99.90;;;;;;5012784;28;21769;-68
2021/12/16 11:48:25;;;;;;;26.63;9.30;;;8.40;99.90;;;;;;5019526;28;20041;-69
2021/12/16 11:51:09;;;;;;;30.08;10.73;;;8.40;99.90;;;;;;5017238;28;20128;-68
2021/12/16 11:53:42;;;;;;;27.85;9.02;;;8.50;99.90;;;;;;5013630;28;20131;-68
2021/12/16 11:56:10;;;;;;;28.90;9.30;;;8.50;99.90;;;;;;5026596;28;20056;-68
2021/12/16 11:58:36;;;;;;;28.67;9.48;;;8.60;99.90;;;;;;5025336;28;20516;-68
2021/12/16 12:01:11;;;;;;;27.97;10.03;;;8.60;99.90;;;;;;5009181;28;20037;-68
2021/12/16 12:03:36;;;;;;;24.75;8.80;;;8.60;99.90;;;;;;5027181;28;20532;-69
2021/12/16 12:06:02;;;;;;;23.90;9.33;;;8.70;99.90;;;;;;5021414;28;20080;-69
2021/12/16 12:08:31;;;;;;;24.33;9.40;;;8.70;99.90;;;;;;5009558;28;20519;-69
2021/12/16 12:11:02;;;;;;;30.58;10.18;;;8.80;99.90;;;;;;5014358;28;20402;-68
2021/12/16 12:13:56;;;;;;;28.50;9.40;;;8.80;99.90;;;;;;5037265;28;20068;-69
2021/12/16 12:16:45;;;;;;;27.45;9.40;;;8.80;99.90;;;;;;5018188;28;20114;-68
2021/12/16 12:19:20;;;;;;;21.70;8.68;;;8.80;99.90;;;;;;5033483;28;20039;-68
2021/12/16 12:21:56;;;;;;;25.17;8.77;;;8.90;99.90;;;;;;5015826;28;20068;-68
2021/12/16 12:24:31;;;;;;;32.45;10.10;;;8.90;99.90;;;;;;5025833;28;20033;-68
2021/12/16 12:27:01;;;;;;;26.38;9.57;;;8.90;99.90;;;;;;5025215;28;20063;-68
2021/12/16 12:29:30;;;;;;;26.75;9.32;;;8.90;99.90;;;;;;5027555;28;20041;-69
2021/12/16 12:32:24;;;;;;;27.33;9.80;;;8.90;99.90;;;;;;5017696;28;20207;-68
2021/12/16 12:34:56;;;;;;;23.63;8.43;;;8.90;99.90;;;;;;5015496;28;20312;-68
2021/12/16 12:37:24;;;;;;;25.73;8.95;;;8.90;99.90;;;;;;5016283;28;20486;-68
2021/12/16 12:39:58;;;;;;;30.00;9.65;;;8.90;99.90;;;;;;5025064;28;20529;-68
2021/12/16 12:42:25;;;;;;;29.17;9.45;;;8.90;99.90;;;;;;5029909;28;20072;-69
2021/12/16 12:44:51;;;;;;;23.63;9.63;;;9.00;99.90;;;;;;5028997;28;20509;-68
2021/12/16 12:47:25;;;;;;;27.23;10.30;;;8.90;99.90;;;;;;5011128;28;20053;-68
2021/12/16 12:49:51;;;;;;;25.35;8.90;;;9.00;99.90;;;;;;4994031;28;20045;-68
2021/12/16 12:52:20;;;;;;;29.45;11.10;;;9.00;99.90;;;;;;5027465;28;20029;-68
2021/12/16 12:55:15;;;;;;;23.95;8.68;;;9.00;99.90;;;;;;5010855;28;20536;-68
2021/12/16 12:57:43;;;;;;;29.30;8.35;;;9.00;99.90;;;;;;5002923;28;20098;-68
2021/12/16 13:00:28;;;;;;;23.30;7.82;;;9.00;99.90;;;;;;5028267;28;20061;-68
2021/12/16 13:03:10;;;;;;;24.55;7.35;;;9.00;99.90;;;;;;5028199;28;20033;-68
2021/12/16 13:05:36;;;;;;;26.02;7.28;;;9.00;99.90;;;;;;5014580;28;20115;-68
2021/12/16 13:08:11;;;;;;;31.77;7.80;;;9.00;99.90;;;;;;5015850;28;20049;-68
2021/12/16 13:10:44;;;;;;;24.70;8.20;;;9.00;99.90;;;;;;5025243;28;20060;-68
2021/12/16 13:16:01;;;;;;;21.02;7.65;;;9.10;99.90;;;;;;5031036;28;20143;-68
2021/12/16 13:27:03;;;;;;;29.35;10.35;;;9.10;99.90;;;;;;5004642;28;20307;-69
2021/12/16 13:32:31;;;;;;;32.55;10.50;;;9.10;99.90;;;;;;5023687;28;20037;-68
2021/12/16 13:35:21;;;;;;;31.63;10.02;;;9.10;99.90;;;;;;5018567;28;20061;-68
2021/12/16 13:37:53;;;;;;;35.08;11.13;;;9.10;99.90;;;;;;5029883;28;20037;-68
2021/12/16 13:40:26;;;;;;;37.33;11.40;;;9.10;99.90;;;;;;5026424;28;20080;-68
2021/12/16 13:43:26;;;;;;;43.95;11.90;;;9.10;99.90;;;;;;5031601;28;20471;-68
2021/12/16 13:46:55;;;;;;;34.55;11.82;;;9.10;99.90;;;;;;5021645;28;20156;-68
2021/12/16 14:02:59;;;;;;;36.75;13.02;;;9.10;99.90;;;;;;5025311;28;20541;-68
2021/12/16 14:06:27;;;;;;;29.55;11.60;;;9.10;99.90;;;;;;5006387;28;20046;-68
2021/12/16 14:08:35;;;;;;;28.02;10.85;;;9.10;99.90;;;;;;5006795;28;20044;-68
2021/12/16 14:11:16;;;;;;;31.77;12.10;;;9.10;99.90;;;;;;5030841;28;20037;-68
2021/12/16 14:14:10;;;;;;;34.17;11.23;;;9.10;99.90;;;;;;5014641;28;20069;-68
2021/12/16 14:31:11;;;;;;;29.75;11.75;;;9.10;99.90;;;;;;5008357;28;20037;-69
2021/12/16 14:42:04;;;;;;;28.70;13.43;;;9.20;99.90;;;;;;5004835;28;20064;-68
2021/12/16 14:47:18;;;;;;;32.10;13.32;;;9.20;99.90;;;;;;5023947;28;20079;-68
2021/12/16 14:49:48;;;;;;;36.83;14.13;;;9.20;99.90;;;;;;5008805;28;20422;-68
2021/12/16 14:52:23;;;;;;;35.80;12.85;;;9.20;99.90;;;;;;5023168;28;20609;-70
2021/12/16 14:57:36;;;;;;;42.58;15.60;;;9.20;99.90;;;;;;5013240;28;20106;-67
2021/12/16 15:00:13;;;;;;;33.72;13.48;;;9.30;99.90;;;;;;5028158;28;20044;-68
2021/12/16 15:02:42;;;;;;;28.98;12.88;;;9.30;99.90;;;;;;5021516;28;20053;-68
2021/12/16 15:05:28;;;;;;;31.63;13.93;;;9.30;99.90;;;;;;5019860;28;20025;-67
2021/12/16 15:08:02;;;;;;;34.88;13.15;;;9.30;99.90;;;;;;5008492;28;20524;-68
2021/12/16 15:10:27;;;;;;;34.15;14.55;;;9.30;99.90;;;;;;5026651;28;20045;-68
2021/12/16 15:13:05;;;;;;;27.33;11.80;;;9.30;99.90;;;;;;5025944;28;20397;-68
2021/12/16 15:15:41;;;;;;;29.65;12.20;;;9.30;99.90;;;;;;5021907;28;20034;-67
2021/12/16 15:33:34;;;;;;;31.65;12.80;;;9.30;99.90;;;;;;5020601;28;20125;-67
2021/12/16 15:37:52;;;;;;;27.30;12.10;;;9.30;99.90;;;;;;5025041;28;20124;-68
2021/12/16 15:40:39;;;;;;;28.60;11.90;;;9.30;99.90;;;;;;5017082;28;20050;-68
2021/12/16 15:43:08;;;;;;;26.35;12.00;;;9.30;99.90;;;;;;5004620;28;20068;-68
2021/12/16 15:45:42;;;;;;;30.70;13.20;;;9.30;99.90;;;;;;5025329;28;20099;-68
2021/12/16 15:48:12;;;;;;;35.45;11.98;;;9.30;99.90;;;;;;5020416;28;20046;-68
2021/12/16 15:50:45;;;;;;;34.92;11.43;;;9.30;99.90;;;;;;5014826;28;20083;-68
2021/12/16 15:53:15;;;;;;;25.83;11.63;;;9.30;99.90;;;;;;5004535;28;20073;-68
2021/12/16 15:55:45;;;;;;;31.08;12.75;;;9.30;99.90;;;;;;5022394;28;20087;-68
2021/12/16 15:58:21;;;;;;;32.83;12.05;;;9.30;99.90;;;;;;5022121;28;20081;-68
2021/12/16 16:00:51;;;;;;;30.85;12.23;;;9.30;99.90;;;;;;5008006;28;20049;-68
2021/12/16 16:03:18;;;;;;;31.17;12.90;;;9.30;99.90;;;;;;5021196;28;20486;-68
2021/12/16 16:05:48;;;;;;;29.20;12.18;;;9.30;99.90;;;;;;5024339;28;20419;-68
2021/12/16 16:08:15;;;;;;;32.88;13.15;;;9.30;99.90;;;;;;5026885;28;20438;-68
2021/12/16 16:10:43;;;;;;;36.08;12.15;;;9.30;99.90;;;;;;5036588;28;20048;-67
2021/12/16 16:13:16;;;;;;;35.97;12.77;;;9.30;99.90;;;;;;5028435;28;20330;-68
2021/12/16 16:15:45;;;;;;;39.75;11.90;;;9.30;99.90;;;;;;5027100;28;20033;-68
2021/12/16 16:18:39;;;;;;;36.60;12.00;;;9.30;99.90;;;;;;5021367;28;20029;-67
2021/12/16 16:21:12;;;;;;;40.53;12.38;;;9.20;99.90;;;;;;5026511;28;20399;-68
2021/12/16 16:23:41;;;;;;;39.85;12.48;;;9.20;99.90;;;;;;5016068;28;20045;-68
2021/12/16 16:26:10;;;;;;;29.75;11.77;;;9.20;99.90;;;;;;5017299;28;20108;-68
2021/12/16 16:28:41;;;;;;;29.50;11.57;;;9.20;99.90;;;;;;5025285;28;20083;-67
2021/12/16 16:31:18;;;;;;;38.30;13.15;;;9.20;99.90;;;;;;5027266;28;20041;-68
2021/12/16 16:33:44;;;;;;;38.22;12.00;;;9.20;99.90;;;;;;5010221;28;20045;-68
2021/12/16 16:36:14;;;;;;;35.53;12.77;;;9.20;99.90;;;;;;5021114;28;20048;-67
2021/12/16 16:38:48;;;;;;;36.80;12.95;;;9.20;99.90;;;;;;5025249;28;20041;-67
2021/12/16 16:41:18;;;;;;;33.30;12.80;;;9.20;99.90;;;;;;5018368;28;20043;-68
2021/12/16 16:43:51;;;;;;;29.65;12.20;;;9.20;99.90;;;;;;5021041;28;20052;-67
2021/12/16 16:46:25;;;;;;;33.80;12.50;;;9.20;99.90;;;;;;5007127;28;20038;-67
2021/12/16 16:49:02;;;;;;;33.28;12.98;;;9.20;99.90;;;;;;5020384;28;20080;-68
2021/12/16 16:51:32;;;;;;;;;;;9.20;99.90;;;;;;5020705;28;20084;-67
2021/12/16 16:54:06;;;;;;;40.30;13.38;;;9.20;99.90;;;;;;5020071;28;19924;-68